Time,TemperatureF,DewpointF,PressureIn,WindDirection,WindDirectionDegrees,WindSpeedMPH,WindSpeedGustMPH,Humidity,HourlyPrecipIn,Conditions,Clouds,dailyrainin,SolarRadiationWatts/m^2,SoftwareType,DateUTC
2013-08-31 00:44:00,73.0,71.0,-100.00,South,185,5.0,7.0,94,0.00,,,0.69,0.000000,,2013-08-31 04:44:00,
2013-08-31 00:54:00,73.0,71.0,-100.00,South,185,5.0,7.0,94,0.00,,,0.69,0.000000,,2013-08-31 04:54:00,
2013-08-31 01:04:00,73.0,71.0,-100.00,South,185,5.0,7.0,94,0.00,,,0.69,0.000000,,2013-08-31 05:04:00,
2013-08-31 01:43:00,74.0,71.0,-100.00,South,183,6.0,7.0,90,0.00,,,0.69,0.000000,,2013-08-31 05:43:00,
2013-08-31 01:53:00,74.0,71.0,-100.00,South,183,6.0,7.0,90,0.00,,,0.69,0.000000,,2013-08-31 05:53:00,
2013-08-31 02:02:00,74.0,71.0,-100.00,South,183,6.0,7.0,90,0.00,,,0.69,0.000000,,2013-08-31 06:02:00,
2013-08-31 02:42:00,74.0,70.0,-100.00,SSE,162,4.0,8.0,86,0.00,,,0.69,0.000000,,2013-08-31 06:42:00,
2013-08-31 02:52:00,74.0,70.0,-100.00,SSE,162,4.0,8.0,86,0.00,,,0.69,0.000000,,2013-08-31 06:52:00,
2013-08-31 03:02:00,74.0,70.0,-100.00,SSE,162,4.0,8.0,86,0.00,,,0.69,0.000000,,2013-08-31 07:02:00,
2013-08-31 03:42:00,73.0,71.0,-100.00,SSE,164,8.0,11.0,95,0.00,,,0.69,0.000000,,2013-08-31 07:42:00,
2013-08-31 03:52:00,73.0,71.0,-100.00,SSE,164,8.0,11.0,95,0.00,,,0.69,0.000000,,2013-08-31 07:52:00,
2013-08-31 04:03:00,73.0,71.0,-100.00,SSE,164,8.0,11.0,95,0.00,,,0.69,0.000000,,2013-08-31 08:03:00,
2013-08-31 04:42:00,72.0,71.0,-100.00,South,173,5.0,12.0,97,0.00,,,0.69,0.000000,,2013-08-31 08:42:00,
2013-08-31 04:52:00,72.0,71.0,-100.00,South,173,5.0,12.0,97,0.00,,,0.69,0.000000,,2013-08-31 08:52:00,
2013-08-31 05:02:00,72.0,71.0,-100.00,South,173,5.0,12.0,97,0.00,,,0.69,0.000000,,2013-08-31 09:02:00,
2013-08-31 05:44:00,72.0,71.0,-100.00,SSW,201,3.0,7.0,97,0.00,,,0.69,0.000000,,2013-08-31 09:44:00,
2013-08-31 05:53:00,72.0,71.0,-100.00,SSW,201,3.0,7.0,97,0.00,,,0.69,0.000000,,2013-08-31 09:53:00,
2013-08-31 06:03:00,72.0,71.0,-100.00,SSW,201,3.0,7.0,97,0.00,,,0.69,0.000000,,2013-08-31 10:03:00,
2013-08-31 06:43:00,72.0,71.0,-100.00,SSE,161,5.0,7.0,98,0.00,,,0.69,0.000000,,2013-08-31 10:43:00,
2013-08-31 06:53:00,72.0,71.0,-100.00,SSE,161,5.0,7.0,98,0.00,,,0.69,0.000000,,2013-08-31 10:53:00,
2013-08-31 07:03:00,72.0,71.0,-100.00,SSE,161,5.0,7.0,98,0.00,,,0.69,0.000000,,2013-08-31 11:03:00,
2013-08-31 07:42:00,71.0,71.0,-100.00,WNW,284,2.0,7.0,99,0.31,,,1.00,0.000000,,2013-08-31 11:42:00,
2013-08-31 07:52:00,71.0,71.0,-100.00,WNW,284,2.0,7.0,99,0.31,,,1.00,0.000000,,2013-08-31 11:52:00,
2013-08-31 08:02:00,71.0,71.0,-100.00,WNW,284,2.0,7.0,99,0.31,,,1.00,0.000000,,2013-08-31 12:02:00,
2013-08-31 08:42:00,71.0,69.0,-100.00,SW,233,4.0,6.0,92,0.03,,,1.03,40.000000,,2013-08-31 12:42:00,
2013-08-31 08:52:00,71.0,69.0,-100.00,SW,233,4.0,6.0,92,0.03,,,1.03,40.000000,,2013-08-31 12:52:00,
2013-08-31 09:01:00,71.0,69.0,-100.00,SW,233,4.0,6.0,92,0.03,,,1.03,40.000000,,2013-08-31 13:01:00,
2013-08-31 09:42:00,73.0,72.0,-100.00,SSE,159,4.0,6.0,98,0.00,,,-99.99,128.000000,,2013-08-31 13:42:00,
2013-08-31 09:52:00,73.0,72.0,-100.00,SSE,159,4.0,6.0,98,0.00,,,-99.99,128.000000,,2013-08-31 13:52:00,
2013-08-31 10:02:00,73.0,72.0,-100.00,SSE,159,4.0,6.0,98,0.00,,,-99.99,128.000000,,2013-08-31 14:02:00,
2013-08-31 10:42:00,75.0,73.0,-100.00,SE,144,5.0,7.0,95,0.00,,,1.03,296.000000,,2013-08-31 14:42:00,
2013-08-31 10:52:00,75.0,73.0,-100.00,SE,144,5.0,7.0,95,0.00,,,1.03,296.000000,,2013-08-31 14:52:00,
2013-08-31 11:02:00,75.0,73.0,-100.00,SE,144,5.0,7.0,95,0.00,,,1.03,296.000000,,2013-08-31 15:02:00,
2013-08-31 11:45:00,80.0,74.0,-100.00,SSW,192,4.0,7.0,82,0.00,,,1.03,588.000000,,2013-08-31 15:45:00,
2013-08-31 11:55:00,80.0,74.0,-100.00,SSW,192,4.0,7.0,82,0.00,,,1.03,588.000000,,2013-08-31 15:55:00,
2013-08-31 12:04:00,80.0,74.0,-100.00,SSW,192,4.0,7.0,82,0.00,,,1.03,588.000000,,2013-08-31 16:04:00,
2013-08-31 12:44:00,79.0,75.0,-100.00,SW,226,4.0,7.0,88,0.00,,,1.03,430.000000,,2013-08-31 16:44:00,
2013-08-31 12:53:00,79.0,75.0,-100.00,SW,226,4.0,7.0,88,0.00,,,1.03,430.000000,,2013-08-31 16:53:00,
2013-08-31 13:03:00,79.0,75.0,-100.00,SW,226,4.0,7.0,88,0.00,,,1.03,430.000000,,2013-08-31 17:03:00,
2013-08-31 13:43:00,83.0,77.0,-100.00,SSE,162,5.0,10.0,81,0.00,,,1.03,773.000000,,2013-08-31 17:43:00,
2013-08-31 13:53:00,83.0,77.0,-100.00,SSE,162,5.0,10.0,81,0.00,,,1.03,773.000000,,2013-08-31 17:53:00,
2013-08-31 14:02:00,83.0,77.0,-100.00,SSE,162,5.0,10.0,81,0.00,,,1.03,773.000000,,2013-08-31 18:02:00,
2013-08-31 14:42:00,86.0,77.0,-100.00,SW,231,4.0,9.0,74,0.00,,,1.03,955.000000,,2013-08-31 18:42:00,
2013-08-31 14:52:00,86.0,77.0,-100.00,SW,231,4.0,9.0,74,0.00,,,1.03,955.000000,,2013-08-31 18:52:00,
2013-08-31 15:01:00,86.0,77.0,-100.00,SW,231,4.0,9.0,74,0.00,,,1.03,955.000000,,2013-08-31 19:01:00,
2013-08-31 15:42:00,87.0,73.0,-100.00,West,274,3.0,8.0,64,0.00,,,-99.99,920.000000,,2013-08-31 19:42:00,
2013-08-31 15:52:00,87.0,73.0,-100.00,West,274,3.0,8.0,64,0.00,,,-99.99,920.000000,,2013-08-31 19:52:00,
2013-08-31 16:02:00,87.0,73.0,-100.00,West,274,3.0,8.0,64,0.00,,,-99.99,920.000000,,2013-08-31 20:02:00,
2013-08-31 16:43:00,88.0,75.0,-100.00,South,179,3.0,6.0,65,0.00,,,0.34,762.000000,,2013-08-31 20:43:00,
2013-08-31 16:53:00,88.0,75.0,-100.00,South,179,3.0,6.0,65,0.00,,,0.34,762.000000,,2013-08-31 20:53:00,
2013-08-31 17:02:00,88.0,75.0,-100.00,South,179,3.0,6.0,65,0.00,,,0.34,762.000000,,2013-08-31 21:02:00,
2013-08-31 17:44:00,87.0,72.0,-100.00,South,170,4.0,7.0,62,0.00,,,0.34,751.000000,,2013-08-31 21:44:00,
2013-08-31 17:54:00,87.0,72.0,-100.00,South,170,4.0,7.0,62,0.00,,,0.34,751.000000,,2013-08-31 21:54:00,
2013-08-31 18:04:00,87.0,72.0,-100.00,South,170,4.0,7.0,62,0.00,,,0.34,751.000000,,2013-08-31 22:04:00,
2013-08-31 18:44:00,87.0,72.0,-100.00,South,178,3.0,7.0,62,0.00,,,0.34,521.000000,,2013-08-31 22:44:00,
2013-08-31 18:53:00,87.0,72.0,-100.00,South,178,3.0,7.0,62,0.00,,,0.34,521.000000,,2013-08-31 22:53:00,
2013-08-31 19:03:00,87.0,72.0,-100.00,South,178,3.0,7.0,62,0.00,,,0.34,521.000000,,2013-08-31 23:03:00,
2013-08-31 20:42:00,82.0,72.0,-100.00,SW,215,4.0,6.0,73,-99.99,,,0.34,56.000000,,2013-09-01 00:42:00,
2013-08-31 20:52:00,82.0,72.0,-100.00,SW,215,4.0,6.0,73,-99.99,,,0.34,56.000000,,2013-09-01 00:52:00,
2013-08-31 21:02:00,82.0,72.0,-100.00,SW,215,4.0,6.0,73,-99.99,,,0.34,56.000000,,2013-09-01 01:02:00,
2013-08-31 21:42:00,81.0,72.0,-100.00,South,188,5.0,7.0,73,0.00,,,0.34,1.000000,,2013-09-01 01:42:00,
2013-08-31 21:52:00,81.0,72.0,-100.00,South,188,5.0,7.0,73,0.00,,,0.34,1.000000,,2013-09-01 01:52:00,
2013-08-31 22:02:00,81.0,72.0,-100.00,South,188,5.0,7.0,73,0.00,,,0.34,1.000000,,2013-09-01 02:02:00,
2013-08-31 23:44:00,74.0,67.0,-100.00,SW,228,4.0,10.0,79,0.00,,,0.83,0.000000,,2013-09-01 03:44:00,
2013-08-31 23:54:00,74.0,67.0,-100.00,SW,228,4.0,10.0,79,0.00,,,0.83,0.000000,,2013-09-01 03:54:00,